createdAt,value
2019-04-10T00:00:53.057Z,26.27
2019-04-10T00:03:31.188Z,26.30
2019-04-10T00:05:49.998Z,27.80
2019-04-10T00:08:17.859Z,24.93
2019-04-10T00:10:45.834Z,25.90
2019-04-10T00:13:14.220Z,27.70
2019-04-10T00:15:42.443Z,27.30
2019-04-10T00:18:09.941Z,28.43
2019-04-10T00:20:39.193Z,27.77
2019-04-10T00:23:06.863Z,27.53
2019-04-10T00:25:34.988Z,28.57
2019-04-10T00:28:03.253Z,28.40
2019-04-10T00:30:31.241Z,26.70
2019-04-10T00:32:59.093Z,29.03
2019-04-10T00:35:27.632Z,26.80
2019-04-10T00:37:55.540Z,28.53
2019-04-10T00:40:23.545Z,28.80
2019-04-10T00:42:51.643Z,28.10
2019-04-10T00:45:20.249Z,30.10
2019-04-10T00:47:47.806Z,29.27
2019-04-10T00:50:15.221Z,28.87
2019-04-10T00:52:42.638Z,30.77
2019-04-10T00:55:11.212Z,30.13
2019-04-10T00:57:39.344Z,28.83
2019-04-10T01:00:06.892Z,28.80
2019-04-10T01:02:36.374Z,27.37
2019-04-10T01:05:04.208Z,27.20
2019-04-10T01:07:36.559Z,29.57
2019-04-10T01:10:01.961Z,27.87
2019-04-10T01:12:30.130Z,29.10
2019-04-10T01:14:58.165Z,28.03
2019-04-10T01:17:26.325Z,28.87
2019-04-10T01:19:54.428Z,26.30
2019-04-10T01:22:21.859Z,28.93
2019-04-10T01:24:50.127Z,27.67
2019-04-10T01:27:18.022Z,27.30
2019-04-10T01:29:46.104Z,29.63
2019-04-10T01:32:13.759Z,27.20
2019-04-10T01:34:41.327Z,26.67
2019-04-10T01:37:08.771Z,27.63
2019-04-10T01:39:36.288Z,27.60
2019-04-10T01:42:04.053Z,25.70
2019-04-10T01:44:31.452Z,27.90
2019-04-10T01:46:59.153Z,26.43
2019-04-10T01:49:26.658Z,27.97
2019-04-10T01:51:54.066Z,27.90
2019-04-10T01:54:22.581Z,26.90
2019-04-10T01:56:50.201Z,27.13
2019-04-10T01:59:19.465Z,26.93
2019-04-10T02:01:52.604Z,28.30
2019-04-10T02:04:20.161Z,30.00
2019-04-10T02:06:47.542Z,30.43
2019-04-10T02:09:15.080Z,31.87
2019-04-10T02:11:42.538Z,31.43
2019-04-10T02:14:09.970Z,32.33
2019-04-10T02:16:37.460Z,30.23
2019-04-10T02:19:05.976Z,31.53
2019-04-10T02:21:34.025Z,32.10
2019-04-10T02:24:02.850Z,30.83
2019-04-10T02:26:31.740Z,31.20
2019-04-10T02:28:59.557Z,30.93
2019-04-10T02:31:28.554Z,30.17
2019-04-10T02:33:59.524Z,30.27
2019-04-10T02:36:27.778Z,27.60
2019-04-10T02:39:08.780Z,28.57
2019-04-10T02:41:25.751Z,30.50
2019-04-10T02:43:53.767Z,32.93
2019-04-10T02:46:22.012Z,33.43
2019-04-10T02:48:50.067Z,33.33
2019-04-10T02:51:17.634Z,32.23
2019-04-10T02:53:46.532Z,34.97
2019-04-10T02:56:15.886Z,35.77
2019-04-10T02:58:44.552Z,37.50
2019-04-10T03:01:13.379Z,37.50
2019-04-10T03:03:42.359Z,40.30
2019-04-10T03:06:11.442Z,41.77
2019-04-10T03:08:56.337Z,42.60
2019-04-10T03:11:11.733Z,44.50
2019-04-10T03:13:38.264Z,46.03
2019-04-10T03:16:07.497Z,44.57
2019-04-10T03:18:35.026Z,46.03
2019-04-10T03:21:02.728Z,45.10
2019-04-10T03:23:30.245Z,45.60
2019-04-10T03:25:57.709Z,46.43
2019-04-10T03:28:25.096Z,45.13
2019-04-10T03:30:53.810Z,45.33
2019-04-10T03:33:30.441Z,45.47
2019-04-10T03:35:57.138Z,46.27
2019-04-10T03:38:25.716Z,46.43
2019-04-10T03:40:53.422Z,45.50
2019-04-10T03:43:21.562Z,45.97
2019-04-10T03:45:49.104Z,46.53
2019-04-10T03:48:16.525Z,45.90
2019-04-10T03:50:43.919Z,47.40
2019-04-10T03:53:11.372Z,46.90
2019-04-10T03:55:38.928Z,47.30
2019-04-10T03:58:07.135Z,47.83
2019-04-10T04:00:34.672Z,46.83
2019-04-10T04:03:02.534Z,47.73
2019-04-10T04:05:30.864Z,47.90
2019-04-10T04:07:59.173Z,47.83
2019-04-10T04:10:26.852Z,50.10
2019-04-10T04:12:55.120Z,50.43
2019-04-10T04:15:22.600Z,49.07
2019-04-10T04:17:50.611Z,49.60
2019-04-10T04:20:19.071Z,49.33
2019-04-10T04:22:47.565Z,46.97
2019-04-10T04:25:15.519Z,60.67
2019-04-10T04:27:44.129Z,51.47
2019-04-10T04:30:12.621Z,53.00
2019-04-10T04:32:40.562Z,50.03
2019-04-10T04:35:08.994Z,47.00
2019-04-10T04:37:36.457Z,48.80
2019-04-10T04:40:05.544Z,47.10
2019-04-10T04:42:33.113Z,49.93
2019-04-10T04:45:00.806Z,50.53
2019-04-10T04:47:28.745Z,47.83
2019-04-10T04:49:56.431Z,48.77
2019-04-10T04:52:24.010Z,49.73
2019-04-10T04:54:51.520Z,49.07
2019-04-10T04:57:18.854Z,49.87
2019-04-10T04:59:46.135Z,49.17
2019-04-10T05:02:14.345Z,50.03
2019-04-10T05:04:41.807Z,50.43
2019-04-10T05:07:10.356Z,48.27
2019-04-10T05:09:39.349Z,49.93
2019-04-10T05:12:07.234Z,48.93
2019-04-10T05:14:35.623Z,52.20
2019-04-10T05:17:03.909Z,49.43
2019-04-10T05:19:31.338Z,50.50
2019-04-10T05:21:59.504Z,50.87
2019-04-10T05:24:27.949Z,51.67
2019-04-10T05:26:55.396Z,50.73
2019-04-10T05:29:22.829Z,52.87
2019-04-10T05:31:51.008Z,52.87
2019-04-10T05:34:18.529Z,50.30
2019-04-10T05:36:46.778Z,50.97
2019-04-10T05:39:14.707Z,50.47
2019-04-10T05:41:42.221Z,50.87
2019-04-10T05:44:09.600Z,50.67
2019-04-10T05:46:37.047Z,50.93
2019-04-10T05:49:04.719Z,50.93
2019-04-10T05:51:33.020Z,49.70
2019-04-10T05:54:00.534Z,50.90
2019-04-10T05:56:28.000Z,49.33
2019-04-10T05:58:55.374Z,51.47
2019-04-10T06:01:32.413Z,49.47
2019-04-10T06:03:52.575Z,52.90
2019-04-10T06:06:22.124Z,51.07
2019-04-10T06:08:49.571Z,52.73
2019-04-10T06:11:17.194Z,51.33
2019-04-10T06:13:45.187Z,52.07
2019-04-10T06:16:15.292Z,52.47
2019-04-10T06:18:43.085Z,49.17
2019-04-10T06:21:10.526Z,50.97
2019-04-10T06:23:37.961Z,51.37
2019-04-10T06:26:06.762Z,48.70
2019-04-10T06:28:34.587Z,49.20
2019-04-10T06:31:02.125Z,50.90
2019-04-10T06:33:29.660Z,48.03
2019-04-10T06:35:57.425Z,49.07
2019-04-10T06:38:25.202Z,49.13
2019-04-10T06:40:52.599Z,47.33
2019-04-10T06:43:21.012Z,50.43
2019-04-10T06:45:50.262Z,49.83
2019-04-10T06:48:17.701Z,49.80
2019-04-10T06:50:45.981Z,48.07
2019-04-10T06:53:15.878Z,48.87
2019-04-10T06:55:43.246Z,48.77
2019-04-10T06:58:11.659Z,47.57
2019-04-10T07:00:40.965Z,46.63
2019-04-10T07:03:08.648Z,46.23
2019-04-10T07:05:41.356Z,45.67
2019-04-10T07:08:12.390Z,47.23
2019-04-10T07:10:47.937Z,48.67
2019-04-10T07:13:08.542Z,47.93
2019-04-10T07:15:33.756Z,46.20
2019-04-10T07:18:01.357Z,47.70
2019-04-10T07:20:29.584Z,46.90
2019-04-10T07:22:58.229Z,45.90
2019-04-10T07:25:25.913Z,46.47
2019-04-10T07:27:54.360Z,47.80
2019-04-10T07:30:25.354Z,47.03
2019-04-10T07:32:51.091Z,46.47
2019-04-10T07:35:20.296Z,48.53
2019-04-10T07:37:52.556Z,45.33
2019-04-10T07:40:18.498Z,45.00
2019-04-10T07:42:46.553Z,46.53
2019-04-10T07:45:14.253Z,44.87
2019-04-10T07:47:42.061Z,43.13
2019-04-10T07:50:10.328Z,46.07
2019-04-10T07:52:38.269Z,46.77
2019-04-10T07:55:15.045Z,45.40
2019-04-10T07:57:51.772Z,46.63
2019-04-10T08:00:20.137Z,44.30
2019-04-10T08:02:49.046Z,44.33
2019-04-10T08:05:16.706Z,44.67
2019-04-10T08:07:45.246Z,44.13
2019-04-10T08:10:12.854Z,44.50
2019-04-10T08:12:47.372Z,44.07
2019-04-10T08:15:13.310Z,45.20
2019-04-10T08:17:41.129Z,43.13
2019-04-10T08:20:08.561Z,43.87
2019-04-10T08:22:37.129Z,44.90
2019-04-10T08:25:05.053Z,44.20
2019-04-10T08:27:32.505Z,41.40
2019-04-10T08:30:01.108Z,43.07
2019-04-10T08:32:28.636Z,42.67
2019-04-10T08:34:56.545Z,43.23
2019-04-10T08:37:24.202Z,39.90
2019-04-10T08:39:52.666Z,39.93
2019-04-10T08:42:20.285Z,40.80
2019-04-10T08:44:48.771Z,40.43
2019-04-10T08:47:17.281Z,39.33
2019-04-10T08:49:45.302Z,40.33
2019-04-10T08:52:13.779Z,41.17
2019-04-10T08:54:42.577Z,41.03
2019-04-10T08:57:11.141Z,42.17
2019-04-10T08:59:40.227Z,40.37
2019-04-10T09:02:07.736Z,42.90
2019-04-10T09:04:35.055Z,38.83
2019-04-10T09:07:03.832Z,39.27
2019-04-10T09:09:31.931Z,40.03
2019-04-10T09:11:59.870Z,41.63
2019-04-10T09:14:27.704Z,40.03
2019-04-10T09:16:55.274Z,40.63
2019-04-10T09:19:22.694Z,42.23
2019-04-10T09:21:50.111Z,39.07
2019-04-10T09:24:17.538Z,40.50
2019-04-10T09:26:44.895Z,39.13
2019-04-10T09:29:12.425Z,38.60
2019-04-10T09:31:40.058Z,39.83
2019-04-10T09:34:07.641Z,40.07
2019-04-10T09:36:35.498Z,38.87
2019-04-10T09:39:05.343Z,38.80
2019-04-10T09:41:34.213Z,39.23
2019-04-10T09:44:02.492Z,40.30
2019-04-10T09:46:31.059Z,40.83
2019-04-10T09:48:58.605Z,38.70
2019-04-10T09:51:25.977Z,39.97
2019-04-10T09:53:53.426Z,37.50
2019-04-10T09:56:21.391Z,34.50
2019-04-10T09:58:49.147Z,38.93
2019-04-10T10:01:17.841Z,37.47
2019-04-10T10:03:45.457Z,38.20
2019-04-10T10:06:24.320Z,40.37
2019-04-10T10:08:43.688Z,36.90
2019-04-10T10:11:11.579Z,36.90
2019-04-10T10:13:39.361Z,38.10
2019-04-10T10:16:06.776Z,39.17
2019-04-10T10:18:35.208Z,38.87
2019-04-10T10:21:04.030Z,36.90
2019-04-10T10:23:31.795Z,37.47
2019-04-10T10:25:59.618Z,37.50
2019-04-10T10:28:27.104Z,37.57
2019-04-10T10:30:55.667Z,38.13
2019-04-10T10:33:23.720Z,37.90
2019-04-10T10:35:51.550Z,35.87
2019-04-10T10:38:19.093Z,36.63
2019-04-10T10:40:46.730Z,37.07
2019-04-10T10:43:14.138Z,36.97
2019-04-10T10:45:42.812Z,37.40
2019-04-10T10:48:11.598Z,37.40
2019-04-10T10:50:39.499Z,36.03
2019-04-10T10:53:08.062Z,36.10
2019-04-10T10:55:36.415Z,37.60
2019-04-10T10:58:03.913Z,36.90
2019-04-10T11:00:31.473Z,35.73
2019-04-10T11:02:58.862Z,36.03
2019-04-10T11:05:27.278Z,35.07
2019-04-10T11:07:55.836Z,38.33
2019-04-10T11:10:27.060Z,35.97
2019-04-10T11:12:53.583Z,37.30
2019-04-10T11:15:22.312Z,37.07
2019-04-10T11:17:50.139Z,35.50
2019-04-10T11:20:17.854Z,36.70
2019-04-10T11:22:45.407Z,35.60
2019-04-10T11:25:13.557Z,35.37
2019-04-10T11:27:42.035Z,35.43
2019-04-10T11:30:10.520Z,36.63
2019-04-10T11:32:38.291Z,35.60
2019-04-10T11:35:06.720Z,36.47
2019-04-10T11:40:06.121Z,38.03
2019-04-10T11:42:35.032Z,36.00
2019-04-10T11:45:05.210Z,36.77
2019-04-10T11:47:34.709Z,35.87
2019-04-10T11:50:05.999Z,35.43
2019-04-10T11:52:36.379Z,36.50
2019-04-10T11:55:07.069Z,35.60
2019-04-10T11:57:32.580Z,34.90
2019-04-10T12:00:02.525Z,36.07
2019-04-10T12:02:34.425Z,34.50
2019-04-10T12:05:08.616Z,36.23
2019-04-10T12:08:02.063Z,33.27
2019-04-10T12:12:31.212Z,36.47
2019-04-10T12:14:59.748Z,35.13
2019-04-10T12:17:27.721Z,34.90
2019-04-10T12:19:55.068Z,37.13
2019-04-10T12:22:23.307Z,35.00
2019-04-10T12:24:51.687Z,35.20
2019-04-10T12:27:19.183Z,36.70
2019-04-10T12:29:46.750Z,35.00
2019-04-10T12:32:14.585Z,35.23
2019-04-10T12:34:42.470Z,33.53
2019-04-10T12:37:11.117Z,33.93
2019-04-10T12:39:39.132Z,32.40
2019-04-10T12:42:06.683Z,33.00
2019-04-10T12:44:34.075Z,31.57
2019-04-10T12:47:02.016Z,30.73
2019-04-10T12:49:35.944Z,30.40
2019-04-10T12:52:08.033Z,28.10
2019-04-10T12:54:35.559Z,28.57
2019-04-10T12:57:02.976Z,29.93
2019-04-10T12:59:31.148Z,31.03
2019-04-10T13:01:59.191Z,29.33
2019-04-10T13:04:26.673Z,30.67
2019-04-10T13:06:54.815Z,29.80
2019-04-10T13:09:26.218Z,31.53
2019-04-10T13:11:55.267Z,31.30
2019-04-10T13:14:24.418Z,31.70
2019-04-10T13:16:52.197Z,31.53
2019-04-10T13:19:21.170Z,32.50
2019-04-10T13:21:48.666Z,32.60
2019-04-10T13:24:16.072Z,32.37
2019-04-10T13:26:43.443Z,31.63
2019-04-10T13:29:10.762Z,30.70
2019-04-10T13:31:38.315Z,29.60
2019-04-10T13:34:05.861Z,31.93
2019-04-10T13:36:33.511Z,31.47
2019-04-10T13:39:00.933Z,30.07
2019-04-10T13:41:28.344Z,30.57
2019-04-10T13:43:55.832Z,30.63
2019-04-10T13:46:23.273Z,31.07
2019-04-10T13:48:50.723Z,29.43
2019-04-10T13:51:19.100Z,29.47
2019-04-10T13:53:46.884Z,29.67
2019-04-10T13:56:14.909Z,30.00
2019-04-10T13:58:42.663Z,29.67
2019-04-10T14:01:14.175Z,30.40
2019-04-10T14:03:43.748Z,29.13
2019-04-10T14:06:11.657Z,30.67
2019-04-10T14:08:58.732Z,29.90
2019-04-10T14:11:08.996Z,28.40
2019-04-10T14:13:36.537Z,28.87
2019-04-10T14:16:04.466Z,27.70
2019-04-10T14:18:32.905Z,28.20
2019-04-10T14:21:01.556Z,28.03
2019-04-10T14:23:31.352Z,25.97
2019-04-10T14:26:45.991Z,26.00
2019-04-10T14:29:10.713Z,26.03
2019-04-10T14:31:41.233Z,22.80
2019-04-10T14:34:08.660Z,24.57
2019-04-10T14:36:36.107Z,23.83
2019-04-10T14:39:16.723Z,23.50
2019-04-10T14:41:40.567Z,24.13
2019-04-10T14:44:08.289Z,23.13
2019-04-10T14:46:36.035Z,22.70
2019-04-10T14:49:03.564Z,22.67
2019-04-10T14:51:30.956Z,21.93
2019-04-10T14:53:59.539Z,23.07
2019-04-10T14:56:26.930Z,22.27
2019-04-10T14:58:54.933Z,22.07
2019-04-10T15:01:22.546Z,22.03
2019-04-10T15:03:50.858Z,22.43
2019-04-10T15:06:21.314Z,21.87
2019-04-10T15:08:50.248Z,21.77
2019-04-10T15:11:18.325Z,21.43
2019-04-10T15:13:45.881Z,22.97
2019-04-10T15:16:13.270Z,21.73
2019-04-10T15:18:40.855Z,20.63
2019-04-10T15:21:08.259Z,20.97
2019-04-10T15:23:35.878Z,21.67
2019-04-10T15:26:03.861Z,21.23
2019-04-10T15:28:31.805Z,21.23
2019-04-10T15:31:00.032Z,20.30
2019-04-10T15:33:28.900Z,20.87
2019-04-10T15:35:57.565Z,21.33
2019-04-10T15:38:26.979Z,21.07
2019-04-10T15:40:54.625Z,21.10
2019-04-10T15:43:23.891Z,20.97
2019-04-10T15:45:52.310Z,20.60
2019-04-10T15:48:20.865Z,20.60
2019-04-10T15:50:49.542Z,22.03
2019-04-10T15:53:18.098Z,19.10
2019-04-10T15:55:45.629Z,19.63
2019-04-10T15:58:14.995Z,20.67
2019-04-10T16:00:43.536Z,20.57
2019-04-10T16:03:11.533Z,19.57
2019-04-10T16:05:39.797Z,19.00
2019-04-10T16:08:12.071Z,20.10
2019-04-10T16:10:57.772Z,19.43
2019-04-10T16:13:42.773Z,19.40
2019-04-10T16:16:42.260Z,20.77
2019-04-10T16:19:20.716Z,19.43
2019-04-10T16:21:48.210Z,20.17
2019-04-10T16:24:16.529Z,20.70
2019-04-10T16:26:44.517Z,21.03
2019-04-10T16:29:11.949Z,18.63
2019-04-10T16:31:39.894Z,20.57
2019-04-10T16:34:07.556Z,20.17
2019-04-10T16:36:35.225Z,19.90
2019-04-10T16:39:04.950Z,19.30
2019-04-10T16:41:35.376Z,18.83
2019-04-10T16:44:04.560Z,20.27
2019-04-10T16:46:32.168Z,18.40
2019-04-10T16:49:00.224Z,19.93
2019-04-10T16:51:28.096Z,19.77
2019-04-10T16:53:55.957Z,18.70
2019-04-10T16:56:23.576Z,19.23
2019-04-10T16:58:52.177Z,18.93
2019-04-10T17:01:20.510Z,18.50
2019-04-10T17:03:48.361Z,19.53
2019-04-10T17:06:15.827Z,18.37
2019-04-10T17:08:43.954Z,18.97
2019-04-10T17:11:12.630Z,19.73
2019-04-10T17:13:40.433Z,18.93
2019-04-10T17:16:07.941Z,19.10
2019-04-10T17:18:35.368Z,19.57
2019-04-10T17:21:02.949Z,19.63
2019-04-10T17:23:30.610Z,20.13
2019-04-10T17:25:58.302Z,19.47
2019-04-10T17:28:26.622Z,19.63
2019-04-10T17:30:56.508Z,20.17
2019-04-10T17:33:25.535Z,20.73
2019-04-10T17:35:53.954Z,21.47
2019-04-10T17:38:22.580Z,21.93
2019-04-10T17:40:53.824Z,20.60
2019-04-10T17:43:20.978Z,21.07
2019-04-10T17:45:48.957Z,21.27
2019-04-10T17:48:19.974Z,21.57
2019-04-10T17:50:48.005Z,20.63
2019-04-10T17:53:19.209Z,21.07
2019-04-10T17:55:48.089Z,21.67
2019-04-10T17:58:15.675Z,21.53
2019-04-10T18:00:48.267Z,20.77
2019-04-10T18:03:18.673Z,21.57
2019-04-10T18:05:46.846Z,20.97
2019-04-10T18:08:16.676Z,21.97
2019-04-10T18:10:49.400Z,21.23
2019-04-10T18:13:13.838Z,22.57
2019-04-10T18:15:41.684Z,23.40
2019-04-10T18:18:09.392Z,22.23
2019-04-10T18:20:36.955Z,24.10
2019-04-10T18:23:05.629Z,23.13
2019-04-10T18:25:33.922Z,22.63
2019-04-10T18:28:01.649Z,23.23
2019-04-10T18:30:34.103Z,22.63
2019-04-10T18:33:03.224Z,22.20
2019-04-10T18:35:30.867Z,21.40
2019-04-10T18:37:59.776Z,22.27
2019-04-10T18:40:27.284Z,21.70
2019-04-10T18:42:57.603Z,22.53
2019-04-10T18:45:25.922Z,22.43
2019-04-10T18:47:54.365Z,22.97
2019-04-10T18:50:22.352Z,21.60
2019-04-10T18:52:49.862Z,20.70
2019-04-10T18:55:18.316Z,21.83
2019-04-10T18:57:45.835Z,22.57
2019-04-10T19:00:36.506Z,22.37
2019-04-10T19:03:18.186Z,23.03
2019-04-10T19:05:48.473Z,22.03
2019-04-10T19:08:16.424Z,22.30
2019-04-10T19:10:45.158Z,23.03
2019-04-10T19:13:13.034Z,21.83
2019-04-10T19:15:41.739Z,20.80
2019-04-10T19:18:09.264Z,22.43
2019-04-10T19:20:36.508Z,21.97
2019-04-10T19:23:04.391Z,23.00
2019-04-10T19:25:32.530Z,21.40
2019-04-10T19:28:00.359Z,21.87
2019-04-10T19:30:35.357Z,22.30
2019-04-10T19:33:03.383Z,23.60
2019-04-10T19:35:31.110Z,23.30
2019-04-10T19:37:58.847Z,21.47
2019-04-10T19:40:26.358Z,22.23
2019-04-10T19:42:54.161Z,21.57
2019-04-10T19:45:21.606Z,23.63
2019-04-10T19:47:49.044Z,22.33
2019-04-10T19:50:17.336Z,23.53
2019-04-10T19:52:44.817Z,21.77
2019-04-10T19:55:12.197Z,22.67
2019-04-10T19:57:39.690Z,21.27
2019-04-10T20:00:08.405Z,22.53
2019-04-10T20:02:35.932Z,22.03
2019-04-10T20:05:05.176Z,22.47
2019-04-10T20:07:33.984Z,23.10
2019-04-10T20:10:02.657Z,20.83
2019-04-10T20:12:32.993Z,23.10
2019-04-10T20:15:00.703Z,20.73
2019-04-10T20:17:28.305Z,23.23
2019-04-10T20:19:57.166Z,22.83
2019-04-10T20:22:27.748Z,22.60
2019-04-10T20:24:56.794Z,21.80
2019-04-10T20:27:26.204Z,21.70
2019-04-10T20:29:53.630Z,21.37
2019-04-10T20:32:21.761Z,21.67
2019-04-10T20:34:49.680Z,20.70
2019-04-10T20:37:17.225Z,21.60
2019-04-10T20:39:45.441Z,22.23
2019-04-10T20:42:14.013Z,21.40
2019-04-10T20:44:41.381Z,22.23
2019-04-10T20:47:08.887Z,20.87
2019-04-10T20:49:36.549Z,20.77
2019-04-10T20:52:04.227Z,21.43
2019-04-10T20:54:32.875Z,21.07
2019-04-10T20:57:01.204Z,24.23
2019-04-10T20:59:30.563Z,22.20
2019-04-10T21:01:58.155Z,23.73
2019-04-10T21:04:25.617Z,21.53
2019-04-10T21:06:53.054Z,22.50
2019-04-10T21:09:20.453Z,22.10
2019-04-10T21:12:00.835Z,19.43
2019-04-10T21:14:17.174Z,20.23
2019-04-10T21:16:44.529Z,20.97
2019-04-10T21:19:12.864Z,19.97
2019-04-10T21:21:41.375Z,20.10
2019-04-10T21:24:09.280Z,20.53
2019-04-10T21:26:36.854Z,19.83
2019-04-10T21:29:06.629Z,18.57
2019-04-10T21:31:59.198Z,19.87
2019-04-10T21:34:46.788Z,19.53
2019-04-10T21:37:15.895Z,18.63
2019-04-10T21:39:43.778Z,20.47
2019-04-10T21:42:19.591Z,18.43
2019-04-10T21:44:40.715Z,20.23
2019-04-10T21:47:08.905Z,20.07
2019-04-10T21:49:36.448Z,19.30
2019-04-10T21:52:03.886Z,18.83
2019-04-10T21:54:31.402Z,19.80
2019-04-10T21:56:59.833Z,19.70
2019-04-10T21:59:27.328Z,18.77
2019-04-10T22:01:56.957Z,18.20
2019-04-10T22:04:25.218Z,18.73
2019-04-10T22:07:07.666Z,17.07
2019-04-10T22:09:51.057Z,17.83
2019-04-10T22:12:31.789Z,16.90
2019-04-10T22:14:56.105Z,16.07
2019-04-10T22:17:24.655Z,16.60
2019-04-10T22:19:52.851Z,16.70
2019-04-10T22:22:20.385Z,15.17
2019-04-10T22:24:48.609Z,16.03
2019-04-10T22:27:17.019Z,15.30
2019-04-10T22:29:44.968Z,15.57
2019-04-10T22:32:12.485Z,14.93
2019-04-10T22:34:40.350Z,14.83
2019-04-10T22:37:08.231Z,14.73
2019-04-10T22:39:35.887Z,13.57
2019-04-10T22:42:03.839Z,13.93
2019-04-10T22:44:36.634Z,14.50
2019-04-10T22:47:00.952Z,13.53
2019-04-10T22:49:28.790Z,13.27
2019-04-10T22:51:56.294Z,13.57
2019-04-10T22:54:23.734Z,13.73
2019-04-10T22:56:51.296Z,14.17
2019-04-10T22:59:18.611Z,14.33
2019-04-10T23:01:58.856Z,14.20
2019-04-10T23:04:15.390Z,13.87
2019-04-10T23:06:42.870Z,12.67
2019-04-10T23:09:11.838Z,13.80
2019-04-10T23:11:42.229Z,12.73
2019-04-10T23:14:10.145Z,11.93
2019-04-10T23:16:37.968Z,11.33
2019-04-10T23:19:05.739Z,12.73
2019-04-10T23:21:33.500Z,12.27
2019-04-10T23:24:00.954Z,12.63
2019-04-10T23:26:29.149Z,12.07
2019-04-10T23:28:57.899Z,12.23
2019-04-10T23:31:25.757Z,11.37
2019-04-10T23:33:54.422Z,11.57
2019-04-10T23:36:23.058Z,11.83
2019-04-10T23:38:52.047Z,10.83
2019-04-10T23:41:19.638Z,11.57
2019-04-10T23:43:48.089Z,11.30
2019-04-10T23:46:15.768Z,11.10
2019-04-10T23:48:43.315Z,11.00
2019-04-10T23:51:10.795Z,12.60
2019-04-10T23:53:38.422Z,10.93
2019-04-10T23:56:06.260Z,10.40
2019-04-10T23:58:33.952Z,10.67
